createdAt,value
2023-02-12T00:01:45.156Z,99.90
2023-02-12T00:04:32.022Z,99.90
2023-02-12T00:07:19.159Z,99.90
2023-02-12T00:10:06.582Z,99.90
2023-02-12T00:12:56.713Z,99.90
2023-02-12T00:15:44.206Z,99.90
2023-02-12T00:18:31.165Z,99.90
2023-02-12T00:21:18.189Z,99.90
2023-02-12T00:24:05.289Z,99.90
2023-02-12T00:26:52.208Z,99.90
2023-02-12T00:29:39.245Z,99.90
2023-02-12T00:32:26.438Z,99.90
2023-02-12T00:35:13.739Z,99.90
2023-02-12T00:38:00.587Z,99.90
2023-02-12T00:40:47.616Z,99.90
2023-02-12T00:43:34.889Z,99.90
2023-02-12T00:46:21.883Z,99.90
2023-02-12T00:49:09.010Z,99.90
2023-02-12T00:51:55.894Z,99.90
2023-02-12T00:54:42.942Z,99.90
2023-02-12T00:57:29.850Z,99.90
2023-02-12T01:00:17.058Z,99.90
2023-02-12T01:03:04.483Z,99.90
2023-02-12T01:05:52.000Z,99.90
2023-02-12T01:08:38.992Z,99.90
2023-02-12T01:11:25.901Z,99.90
2023-02-12T01:14:12.786Z,99.90
2023-02-12T01:16:59.662Z,99.90
2023-02-12T01:19:46.556Z,99.90
2023-02-12T01:22:37.596Z,99.90
2023-02-12T01:25:24.603Z,99.90
2023-02-12T01:28:11.720Z,99.90
2023-02-12T01:30:59.112Z,99.90
2023-02-12T01:33:50.761Z,99.90
2023-02-12T01:36:38.006Z,99.90
2023-02-12T01:39:24.874Z,99.90
2023-02-12T01:42:15.845Z,99.90
2023-02-12T01:45:14.969Z,99.90
2023-02-12T01:48:02.053Z,99.90
2023-02-12T01:50:50.838Z,99.90
2023-02-12T01:53:44.249Z,99.90
2023-02-12T01:56:32.246Z,99.90
2023-02-12T01:59:20.203Z,99.90
2023-02-12T02:02:07.331Z,99.90
2023-02-12T02:05:01.823Z,99.90
2023-02-12T02:07:48.995Z,99.90
2023-02-12T02:10:36.046Z,99.90
2023-02-12T02:13:41.422Z,99.90
2023-02-12T02:16:30.618Z,99.90
2023-02-12T02:19:47.230Z,99.90
2023-02-12T02:22:57.515Z,99.90
2023-02-12T02:26:08.644Z,99.90
2023-02-12T02:29:23.129Z,99.90
2023-02-12T02:32:16.957Z,99.90
2023-02-12T02:35:39.886Z,99.90
2023-02-12T02:38:37.695Z,99.90
2023-02-12T02:41:45.444Z,99.90
2023-02-12T02:45:00.985Z,99.90
2023-02-12T02:48:17.947Z,99.90
2023-02-12T02:51:24.670Z,99.90
2023-02-12T02:54:23.813Z,99.90
2023-02-12T02:57:23.112Z,99.90
2023-02-12T03:00:18.955Z,99.90
2023-02-12T03:03:41.766Z,99.90
2023-02-12T03:06:50.853Z,99.90
2023-02-12T03:09:53.830Z,99.90
2023-02-12T03:12:43.318Z,99.90
2023-02-12T03:15:39.148Z,99.90
2023-02-12T03:18:33.236Z,99.90
2023-02-12T03:21:33.695Z,99.90
2023-02-12T03:24:40.765Z,99.90
2023-02-12T03:27:34.332Z,99.90
2023-02-12T03:30:23.054Z,99.90
2023-02-12T03:33:42.342Z,99.90
2023-02-12T03:36:44.273Z,99.90
2023-02-12T03:40:04.475Z,99.90
2023-02-12T03:43:03.111Z,99.90
2023-02-12T03:45:56.854Z,99.90
2023-02-12T03:48:59.144Z,99.90
2023-02-12T03:51:46.297Z,99.90
2023-02-12T03:54:33.795Z,99.90
2023-02-12T03:57:24.420Z,99.90
2023-02-12T04:00:16.847Z,99.90
2023-02-12T04:03:05.240Z,99.90
2023-02-12T04:05:52.192Z,99.90
2023-02-12T04:08:39.154Z,99.90
2023-02-12T04:11:42.015Z,99.90
2023-02-12T04:14:54.053Z,99.90
2023-02-12T04:17:51.552Z,99.90
2023-02-12T04:20:38.603Z,99.90
2023-02-12T04:23:43.627Z,99.90
2023-02-12T04:26:55.216Z,99.90
2023-02-12T04:30:04.761Z,99.90
2023-02-12T04:32:56.679Z,99.90
2023-02-12T04:36:09.256Z,99.90
2023-02-12T04:39:11.279Z,99.90
2023-02-12T04:42:02.803Z,99.90
2023-02-12T04:44:49.916Z,99.90
2023-02-12T04:47:36.858Z,99.90
2023-02-12T04:50:24.181Z,99.90
2023-02-12T04:53:11.179Z,99.90
2023-02-12T04:55:58.405Z,99.90
2023-02-12T04:58:45.354Z,99.90
2023-02-12T05:01:34.716Z,99.90
2023-02-12T05:04:21.697Z,99.90
2023-02-12T05:07:08.682Z,99.90
2023-02-12T05:09:55.797Z,99.90
2023-02-12T05:12:42.734Z,99.90
2023-02-12T05:15:29.744Z,99.90
2023-02-12T05:18:16.679Z,99.90
2023-02-12T05:21:05.170Z,99.90
2023-02-12T05:23:52.166Z,99.90
2023-02-12T05:26:39.167Z,99.90
2023-02-12T05:29:26.032Z,99.90
2023-02-12T05:32:13.050Z,99.90
2023-02-12T05:34:59.987Z,99.90
2023-02-12T05:37:47.080Z,99.90
2023-02-12T05:40:34.784Z,99.90
2023-02-12T05:43:21.718Z,99.90
2023-02-12T05:46:09.516Z,99.90
2023-02-12T05:48:56.283Z,99.90
2023-02-12T05:51:43.177Z,99.90
2023-02-12T05:54:30.155Z,99.90
2023-02-12T05:57:17.062Z,99.90
2023-02-12T06:00:06.697Z,99.90
2023-02-12T06:02:53.760Z,99.90
2023-02-12T06:05:40.752Z,99.90
2023-02-12T06:08:27.658Z,99.90
2023-02-12T06:11:16.746Z,99.90
2023-02-12T06:14:05.530Z,99.90
2023-02-12T06:16:52.862Z,99.90
2023-02-12T06:19:39.821Z,99.90
2023-02-12T06:22:28.613Z,99.90
2023-02-12T06:25:15.640Z,99.90
2023-02-12T06:28:02.645Z,99.90
2023-02-12T06:30:49.715Z,99.90
2023-02-12T06:33:36.783Z,99.90
2023-02-12T06:36:25.366Z,99.90
2023-02-12T06:39:14.553Z,99.90
2023-02-12T06:42:02.002Z,99.90
2023-02-12T06:44:51.316Z,99.90
2023-02-12T06:47:39.639Z,99.90
2023-02-12T06:50:26.967Z,99.90
2023-02-12T06:53:13.795Z,99.90
2023-02-12T06:56:02.240Z,99.90
2023-02-12T06:58:57.417Z,99.90
2023-02-12T07:01:44.739Z,99.90
2023-02-12T07:04:31.709Z,99.90
2023-02-12T07:07:18.586Z,99.90
2023-02-12T07:10:05.864Z,99.90
2023-02-12T07:12:53.005Z,99.90
2023-02-12T07:15:40.730Z,99.90
2023-02-12T07:18:27.479Z,99.90
2023-02-12T07:21:15.837Z,99.90
2023-02-12T07:24:03.031Z,99.90
2023-02-12T07:26:49.879Z,99.90
2023-02-12T07:29:37.034Z,99.90
2023-02-12T07:32:23.982Z,99.90
2023-02-12T07:35:10.864Z,99.90
2023-02-12T07:37:58.592Z,99.90
2023-02-12T07:40:45.523Z,99.90
2023-02-12T07:43:32.394Z,99.90
2023-02-12T07:46:22.747Z,99.90
2023-02-12T07:49:13.447Z,99.90
2023-02-12T07:52:00.345Z,99.90
2023-02-12T07:54:47.850Z,99.90
2023-02-12T07:57:38.001Z,99.90
2023-02-12T08:00:25.018Z,99.90
2023-02-12T08:03:11.933Z,99.90
2023-02-12T08:05:58.767Z,99.90
2023-02-12T08:08:46.739Z,99.90
2023-02-12T08:11:34.351Z,99.90
2023-02-12T08:14:22.685Z,99.90
2023-02-12T08:17:09.682Z,99.90
2023-02-12T08:19:56.535Z,99.90
2023-02-12T08:22:43.468Z,99.90
2023-02-12T08:25:30.430Z,99.90
2023-02-12T08:28:18.250Z,99.90
2023-02-12T08:31:06.753Z,99.90
2023-02-12T08:33:54.980Z,99.90
2023-02-12T08:36:41.903Z,99.90
2023-02-12T08:39:30.146Z,99.90
2023-02-12T08:42:17.050Z,99.90
2023-02-12T08:45:04.095Z,99.90
2023-02-12T08:47:50.960Z,99.90
2023-02-12T08:50:39.146Z,99.90
2023-02-12T08:53:26.114Z,99.90
2023-02-12T08:56:15.045Z,99.90
2023-02-12T08:59:04.714Z,99.90
2023-02-12T09:01:52.650Z,99.90
2023-02-12T09:04:40.259Z,99.90
2023-02-12T09:07:27.121Z,99.90
2023-02-12T09:10:14.195Z,99.90
2023-02-12T09:13:01.178Z,99.90
2023-02-12T09:15:48.262Z,99.90
2023-02-12T09:18:38.763Z,99.90
2023-02-12T09:21:26.013Z,99.90
2023-02-12T09:24:13.004Z,99.90
2023-02-12T09:26:59.950Z,99.90
2023-02-12T09:29:46.840Z,99.90
2023-02-12T09:32:33.828Z,99.90
2023-02-12T09:35:20.710Z,99.90
2023-02-12T09:38:08.789Z,99.90
2023-02-12T09:41:04.699Z,99.90
2023-02-12T09:44:33.051Z,99.90
2023-02-12T09:47:19.851Z,99.90
2023-02-12T09:50:33.209Z,99.90
2023-02-12T09:53:28.214Z,99.90
2023-02-12T09:56:21.100Z,99.90
2023-02-12T09:59:09.651Z,99.90
2023-02-12T10:01:58.615Z,99.90
2023-02-12T10:05:00.291Z,99.90
2023-02-12T10:08:08.554Z,99.90
2023-02-12T10:11:28.989Z,99.90
2023-02-12T10:14:27.881Z,99.90
2023-02-12T10:17:30.078Z,99.90
2023-02-12T10:20:43.489Z,99.90
2023-02-12T10:23:51.597Z,99.90
2023-02-12T10:26:41.395Z,99.90
2023-02-12T10:29:33.282Z,99.90
2023-02-12T10:32:34.219Z,99.90
2023-02-12T10:35:23.871Z,99.90
2023-02-12T10:38:21.690Z,99.90
2023-02-12T10:41:13.623Z,99.90
2023-02-12T10:44:00.720Z,99.90
2023-02-12T10:46:47.936Z,99.90
2023-02-12T10:49:35.317Z,99.90
2023-02-12T10:52:34.515Z,99.90
2023-02-12T10:55:29.310Z,99.90
2023-02-12T10:58:22.784Z,99.90
2023-02-12T11:01:18.964Z,99.90
2023-02-12T11:04:27.106Z,99.90
2023-02-12T11:07:14.185Z,99.90
2023-02-12T11:10:01.108Z,99.90
2023-02-12T11:12:49.684Z,99.90
2023-02-12T11:15:48.413Z,99.90
2023-02-12T11:18:36.805Z,99.90
2023-02-12T11:21:24.237Z,99.90
2023-02-12T11:24:26.352Z,99.90
2023-02-12T11:27:15.978Z,99.90
2023-02-12T11:30:22.093Z,99.90
2023-02-12T11:33:21.868Z,99.90
2023-02-12T11:36:29.941Z,99.90
2023-02-12T11:39:28.266Z,99.90
2023-02-12T11:42:22.632Z,99.90
2023-02-12T11:45:18.391Z,99.90
2023-02-12T11:48:27.546Z,99.90
2023-02-12T11:51:26.272Z,99.90
2023-02-12T11:54:21.115Z,99.90
2023-02-12T11:57:10.909Z,99.90
2023-02-12T11:59:59.830Z,99.90
2023-02-12T12:03:21.083Z,99.90
2023-02-12T12:06:23.124Z,99.90
2023-02-12T12:09:19.290Z,99.90
2023-02-12T12:12:23.763Z,99.90
2023-02-12T12:15:44.977Z,99.60
2023-02-12T12:19:00.565Z,99.90
2023-02-12T12:22:16.743Z,99.90
2023-02-12T12:25:27.748Z,99.90
2023-02-12T12:28:20.313Z,99.40
2023-02-12T12:31:22.072Z,99.30
2023-02-12T12:34:17.173Z,98.90
2023-02-12T12:37:33.683Z,98.40
2023-02-12T12:40:34.409Z,97.60
2023-02-12T12:43:54.965Z,96.90
2023-02-12T12:47:00.360Z,96.30
2023-02-12T12:50:08.484Z,96.30
2023-02-12T12:53:23.815Z,96.90
2023-02-12T12:56:30.377Z,97.90
2023-02-12T12:59:29.229Z,98.60
2023-02-12T13:02:18.965Z,99.60
2023-02-12T13:05:27.608Z,99.80
2023-02-12T13:08:41.051Z,99.90
2023-02-12T13:11:41.817Z,99.90
2023-02-12T13:14:52.911Z,99.90
2023-02-12T13:17:46.150Z,99.90
2023-02-12T13:20:46.895Z,99.90
2023-02-12T13:23:48.864Z,99.90
2023-02-12T13:26:52.967Z,99.80
2023-02-12T13:29:53.384Z,99.40
2023-02-12T13:33:21.539Z,99.20
2023-02-12T13:36:12.717Z,99.10
2023-02-12T13:39:19.884Z,99.20
2023-02-12T13:42:32.500Z,99.90
2023-02-12T13:45:50.544Z,99.90
2023-02-12T13:48:37.402Z,99.90
2023-02-12T13:51:48.756Z,99.90
2023-02-12T13:54:55.052Z,99.90
2023-02-12T13:57:42.098Z,99.90
2023-02-12T14:00:52.402Z,99.90
2023-02-12T14:03:40.433Z,99.90
2023-02-12T14:06:27.452Z,99.90
2023-02-12T14:09:24.104Z,99.90
2023-02-12T14:12:18.462Z,99.90
2023-02-12T14:15:23.794Z,99.90
2023-02-12T14:18:27.189Z,99.90
2023-02-12T14:21:14.102Z,99.90
2023-02-12T14:24:35.940Z,99.90
2023-02-12T14:27:48.677Z,99.90
2023-02-12T14:30:40.494Z,99.90
2023-02-12T14:33:27.765Z,99.90
2023-02-12T14:36:32.236Z,99.90
2023-02-12T14:39:22.408Z,99.90
2023-02-12T14:42:09.180Z,99.90
2023-02-12T14:45:00.028Z,99.90
2023-02-12T14:47:46.830Z,99.90
2023-02-12T14:50:50.540Z,99.90
2023-02-12T14:53:39.382Z,99.90
2023-02-12T14:56:26.819Z,99.90
2023-02-12T14:59:26.171Z,99.90
2023-02-12T15:02:42.676Z,99.90
2023-02-12T15:05:41.131Z,99.90
2023-02-12T15:08:43.535Z,99.90
2023-02-12T15:11:45.152Z,99.90
2023-02-12T15:14:35.653Z,99.90
2023-02-12T15:17:28.214Z,99.90
2023-02-12T15:20:23.879Z,99.90
2023-02-12T15:23:39.974Z,99.90
2023-02-12T15:26:28.761Z,99.90
2023-02-12T15:29:21.338Z,99.90
2023-02-12T15:32:15.168Z,99.90
2023-02-12T15:35:02.380Z,99.90
2023-02-12T15:37:50.101Z,99.90
2023-02-12T15:40:37.002Z,99.90
2023-02-12T15:43:28.302Z,99.90
2023-02-12T15:46:18.759Z,99.90
2023-02-12T15:49:19.599Z,99.90
2023-02-12T15:52:24.791Z,99.90
2023-02-12T15:55:21.024Z,99.90
2023-02-12T15:58:27.000Z,99.90
2023-02-12T16:01:19.035Z,99.90
2023-02-12T16:04:08.448Z,99.90
2023-02-12T16:06:55.728Z,99.90
2023-02-12T16:09:43.472Z,99.90
2023-02-12T16:12:33.997Z,99.90
2023-02-12T16:15:31.554Z,99.90
2023-02-12T16:18:26.434Z,99.90
2023-02-12T16:21:22.977Z,99.90
2023-02-12T16:24:33.473Z,99.90
2023-02-12T16:27:23.123Z,99.90
2023-02-12T16:30:30.743Z,99.90
2023-02-12T16:33:43.351Z,99.90
2023-02-12T16:36:32.141Z,99.90
2023-02-12T16:39:44.808Z,99.90
2023-02-12T16:42:31.797Z,99.90
2023-02-12T16:45:34.679Z,99.90
2023-02-12T16:48:25.325Z,99.90
2023-02-12T16:51:29.973Z,99.90
2023-02-12T16:54:32.012Z,99.90
2023-02-12T16:57:18.843Z,99.90
2023-02-12T17:00:08.472Z,99.90
2023-02-12T17:02:56.416Z,99.90
2023-02-12T17:05:45.256Z,99.90
2023-02-12T17:08:32.090Z,99.90
2023-02-12T17:11:20.017Z,99.90
2023-02-12T17:14:10.467Z,99.90
2023-02-12T17:16:57.564Z,99.90
2023-02-12T17:19:44.729Z,99.90
2023-02-12T17:22:31.760Z,99.90
2023-02-12T17:25:19.142Z,99.90
2023-02-12T17:28:06.167Z,99.90
2023-02-12T17:30:54.318Z,99.90
2023-02-12T17:33:41.380Z,99.90
2023-02-12T17:36:28.551Z,99.90
2023-02-12T17:39:16.609Z,99.90
2023-02-12T17:42:03.709Z,99.90
2023-02-12T17:44:50.634Z,99.90
2023-02-12T17:47:40.027Z,99.90
2023-02-12T17:50:27.322Z,99.90
2023-02-12T17:53:14.180Z,99.90
2023-02-12T17:56:01.185Z,99.90
2023-02-12T17:58:49.402Z,99.90
2023-02-12T18:01:36.481Z,99.90
2023-02-12T18:04:23.573Z,99.90
2023-02-12T18:07:10.613Z,99.90
2023-02-12T18:09:57.509Z,99.90
2023-02-12T18:12:44.399Z,99.90
2023-02-12T18:15:31.289Z,99.90
2023-02-12T18:18:18.362Z,99.90
2023-02-12T18:21:10.372Z,99.90
2023-02-12T18:23:57.460Z,99.90
2023-02-12T18:26:44.558Z,99.90
2023-02-12T18:29:31.540Z,99.90
2023-02-12T18:32:18.445Z,99.90
2023-02-12T18:35:06.850Z,99.90
2023-02-12T18:37:53.723Z,99.90
2023-02-12T18:40:41.395Z,99.90
2023-02-12T18:43:28.389Z,99.90
2023-02-12T18:46:18.705Z,99.90
2023-02-12T18:49:06.432Z,99.90
2023-02-12T18:51:53.390Z,99.90
2023-02-12T18:54:40.262Z,99.90
2023-02-12T18:57:28.061Z,99.90
2023-02-12T19:00:15.029Z,99.90
2023-02-12T19:03:01.921Z,99.90
2023-02-12T19:05:49.028Z,99.90
2023-02-12T19:08:36.150Z,99.90
2023-02-12T19:11:23.243Z,99.90
2023-02-12T19:14:10.361Z,99.90
2023-02-12T19:16:57.367Z,99.90
2023-02-12T19:19:44.395Z,99.90
2023-02-12T19:22:31.252Z,99.90
2023-02-12T19:25:18.247Z,99.90
2023-02-12T19:28:05.371Z,99.90
2023-02-12T19:30:52.477Z,99.90
2023-02-12T19:33:40.873Z,99.90
2023-02-12T19:36:29.849Z,99.90
2023-02-12T19:39:19.650Z,99.90
2023-02-12T19:42:06.547Z,99.90
2023-02-12T19:44:53.457Z,99.90
2023-02-12T19:47:40.446Z,99.90
2023-02-12T19:50:27.372Z,99.90
2023-02-12T19:53:14.553Z,99.90
2023-02-12T19:56:05.156Z,99.90
2023-02-12T19:58:52.125Z,99.90
2023-02-12T20:01:39.537Z,99.90
2023-02-12T20:04:26.935Z,99.90
2023-02-12T20:07:13.925Z,99.90
2023-02-12T20:10:00.875Z,99.90
2023-02-12T20:12:47.711Z,99.90
2023-02-12T20:15:38.915Z,99.90
2023-02-12T20:18:25.914Z,99.90
2023-02-12T20:21:17.163Z,99.90
2023-02-12T20:24:04.422Z,99.90
2023-02-12T20:26:51.381Z,99.90
2023-02-12T20:29:38.226Z,99.90
2023-02-12T20:32:25.137Z,99.90
2023-02-12T20:35:13.474Z,99.90
2023-02-12T20:38:00.536Z,99.90
2023-02-12T20:40:47.562Z,99.90
2023-02-12T20:43:35.446Z,99.90
2023-02-12T20:46:25.000Z,99.90
2023-02-12T20:49:16.673Z,99.90
2023-02-12T20:52:03.722Z,99.90
2023-02-12T20:54:51.067Z,99.90
2023-02-12T20:57:37.985Z,99.90
2023-02-12T21:00:25.100Z,99.90
2023-02-12T21:03:12.000Z,99.90
2023-02-12T21:05:59.109Z,99.90
2023-02-12T21:08:46.430Z,99.90
2023-02-12T21:11:33.540Z,99.90
2023-02-12T21:14:23.510Z,99.90
2023-02-12T21:17:10.976Z,99.90
2023-02-12T21:19:57.853Z,99.90
2023-02-12T21:22:44.780Z,99.90
2023-02-12T21:25:31.652Z,99.90
2023-02-12T21:28:18.628Z,99.90
2023-02-12T21:31:19.071Z,99.90
2023-02-12T21:34:09.266Z,99.90
2023-02-12T21:36:57.831Z,99.90
2023-02-12T21:39:44.689Z,99.90
2023-02-12T21:42:31.664Z,99.90
2023-02-12T21:45:18.542Z,99.90
2023-02-12T21:48:05.577Z,99.90
2023-02-12T21:50:52.557Z,99.90
2023-02-12T21:53:39.426Z,99.90
2023-02-12T21:56:27.917Z,99.90
2023-02-12T21:59:15.515Z,99.90
2023-02-12T22:02:02.601Z,99.90
2023-02-12T22:04:49.579Z,99.90
2023-02-12T22:07:36.513Z,99.90
2023-02-12T22:10:23.412Z,99.90
2023-02-12T22:13:10.278Z,99.90
2023-02-12T22:15:58.246Z,99.90
2023-02-12T22:18:46.387Z,99.90
2023-02-12T22:21:37.021Z,99.90
2023-02-12T22:24:24.096Z,99.90
2023-02-12T22:27:10.997Z,99.90
2023-02-12T22:29:58.052Z,99.90
2023-02-12T22:32:45.459Z,99.90
2023-02-12T22:35:32.691Z,99.90
2023-02-12T22:38:19.563Z,99.90
2023-02-12T22:41:08.182Z,99.90
2023-02-12T22:43:55.596Z,99.90
2023-02-12T22:46:43.613Z,99.90
2023-02-12T22:49:30.526Z,99.90
2023-02-12T22:52:17.567Z,99.90
2023-02-12T22:55:04.732Z,99.90
2023-02-12T22:57:51.674Z,99.90
2023-02-12T23:00:40.149Z,99.90
2023-02-12T23:03:30.229Z,99.90
2023-02-12T23:06:18.970Z,99.90
2023-02-12T23:09:05.878Z,99.90
2023-02-12T23:11:52.880Z,99.90
2023-02-12T23:14:39.817Z,99.90
2023-02-12T23:17:26.715Z,99.90
2023-02-12T23:20:14.792Z,99.90
2023-02-12T23:23:01.674Z,99.90
2023-02-12T23:26:26.486Z,99.90
2023-02-12T23:29:15.341Z,99.90
2023-02-12T23:32:02.383Z,99.90
2023-02-12T23:34:49.310Z,99.90
2023-02-12T23:37:36.192Z,99.90
2023-02-12T23:40:23.652Z,99.90
2023-02-12T23:43:10.843Z,99.90
2023-02-12T23:45:57.801Z,99.90
2023-02-12T23:48:44.828Z,99.90
2023-02-12T23:51:32.112Z,99.90
2023-02-12T23:54:18.968Z,99.90
2023-02-12T23:57:05.820Z,99.90
2023-02-12T23:59:53.466Z,99.90
